Time;durP1;ratioP1;P1;durP2;ratioP2;P2;SDS_P1;SDS_P2;PMS_P1;PMS_P2;Temp;Humidity;BMP_temperature;BMP_pressure;BME280_temperature;BME280_humidity;BME280_pressure;Samples;Min_cycle;Max_cycle;Signal;HPM_P1;HPM_P2
2022/01/10 00:00:20;;;;;;;;;;;11.90;98.60;;;;;;5037134;28;19927;-68
2022/01/10 00:02:47;;;;;;;;;;;11.60;98.40;;;;;;5043565;28;19924;-67
2022/01/10 00:05:13;;;;;;;;;;;12.00;98.50;;;;;;5051591;28;19924;-67
2022/01/10 00:07:39;;;;;;;;;;;11.90;98.40;;;;;;5056925;28;19920;-61
2022/01/10 00:10:05;;;;;;;;;;;11.70;98.40;;;;;;5055608;28;19921;-67
2022/01/10 00:12:31;;;;;;;;;;;;;;;;;;5038946;28;19921;-68
2022/01/10 00:14:57;;;;;;;;;;;11.50;98.20;;;;;;5038702;28;19925;-68
2022/01/10 00:17:22;;;;;;;;;;;11.80;98.30;;;;;;5056372;28;19920;-66
2022/01/10 00:19:48;;;;;;;;;;;11.90;98.30;;;;;;5055941;28;19928;-67
2022/01/10 00:22:14;;;;;;;;;;;11.90;98.20;;;;;;5052141;28;20391;-67
2022/01/10 00:24:39;;;;;;;;;;;11.70;98.10;;;;;;5056089;28;20052;-67
2022/01/10 00:27:05;;;;;;;;;;;;;;;;;;5056470;28;19963;-67
2022/01/10 00:29:31;;;;;;;;;;;11.70;98.20;;;;;;5056558;28;19920;-68
2022/01/10 00:31:57;;;;;;;;;;;;;;;;;;5055708;28;19931;-68
2022/01/10 00:34:26;;;;;;;;;;;11.90;98.10;;;;;;5055943;28;20286;-67
2022/01/10 00:36:51;;;;;;;;;;;11.70;98.10;;;;;;5056234;28;19927;-67
2022/01/10 00:39:17;;;;;;;;;;;11.60;98.10;;;;;;5055267;28;19916;-68
2022/01/10 00:41:44;;;;;;;;;;;11.60;98.20;;;;;;5041257;28;19925;-67
2022/01/10 00:44:10;;;;;;;;;;;11.70;98.20;;;;;;5048974;28;19916;-67
2022/01/10 00:46:36;;;;;;;;;;;11.60;98.10;;;;;;5056231;28;19967;-68
2022/01/10 00:49:01;;;;;;;;;;;11.80;98.10;;;;;;5055397;28;19928;-68
2022/01/10 00:51:27;;;;;;;;;;;11.70;98.10;;;;;;5044015;28;20003;-67
2022/01/10 00:53:53;;;;;;;;;;;11.60;98.00;;;;;;5038024;28;20485;-68
2022/01/10 00:56:19;;;;;;;;;;;11.80;98.10;;;;;;5036612;28;19927;-67
2022/01/10 00:58:45;;;;;;;;;;;11.70;97.90;;;;;;5040688;28;20374;-67
2022/01/10 01:01:11;;;;;;;;;;;;;;;;;;5038102;28;19921;-68
2022/01/10 01:03:37;;;;;;;;;;;11.40;97.90;;;;;;5055470;28;19978;-70
2022/01/10 01:06:03;;;;;;;;;;;11.60;97.90;;;;;;5038472;28;19921;-67
2022/01/10 01:08:31;;;;;;;;;;;11.50;97.90;;;;;;5035802;28;20386;-68
2022/01/10 01:14:05;;;;;;;;;;;11.70;97.90;;;;;;5014095;28;20063;-67
2022/01/10 01:19:50;;;;;;;;;;;;;;;;;;5018259;28;19976;-61
2022/01/10 01:24:35;;;;;;;;;;;11.80;98.00;;;;;;5014229;28;19921;-61
2022/01/10 01:27:01;;;;;;;;;;;11.60;98.00;;;;;;5013399;28;20048;-61
2022/01/10 01:29:28;;;;;;;;;;;11.90;98.00;;;;;;5013425;28;19926;-62
2022/01/10 01:31:53;;;;;;;;;;;11.60;97.90;;;;;;4996937;28;19921;-61
2022/01/10 01:34:19;;;;;;;;;;;11.50;97.80;;;;;;5013169;28;19928;-61
2022/01/10 01:36:49;;;;;;;;;;;11.70;97.80;;;;;;5027986;28;19928;-61
2022/01/10 01:39:20;;;;;;;;;;;11.50;97.60;;;;;;4994793;28;20403;-63
2022/01/10 01:41:47;;;;;;;;;;;11.50;97.70;;;;;;5032964;28;19921;-61
2022/01/10 01:44:12;;;;;;;;;;;11.40;97.50;;;;;;5032982;28;19939;-61
2022/01/10 01:46:38;;;;;;;;;;;11.70;97.70;;;;;;5018419;28;20019;-61
2022/01/10 01:49:04;;;;;;;;;;;11.40;97.60;;;;;;5012544;28;19923;-61
2022/01/10 01:51:30;;;;;;;;;;;11.50;97.70;;;;;;5030308;28;19928;-61
2022/01/10 01:53:56;;;;;;;;;;;11.40;97.70;;;;;;5035782;28;19929;-61
2022/01/10 01:56:21;;;;;;;;;;;11.60;97.70;;;;;;5055443;28;19971;-61
2022/01/10 01:58:47;;;;;;;;;;;11.60;97.70;;;;;;5037439;28;20019;-61
2022/01/10 02:01:16;;;;;;;;;;;;;;;;;;5033289;28;19928;-61
2022/01/10 02:03:42;;;;;;;;;;;11.60;97.70;;;;;;5040029;28;19920;-62
2022/01/10 02:06:08;;;;;;;;;;;11.40;97.70;;;;;;5053903;28;19920;-62
2022/01/10 02:08:34;;;;;;;;;;;11.90;97.80;;;;;;5044217;28;19921;-68
2022/01/10 02:10:59;;;;;;;;;;;11.40;97.70;;;;;;5053149;28;19928;-68
2022/01/10 02:13:26;;;;;;;;;;;11.50;97.70;;;;;;5036462;28;19920;-69
2022/01/10 02:15:58;;;;;;;;;;;11.40;97.60;;;;;;5047679;28;19921;-67
2022/01/10 02:18:24;;;;;;;;;;;11.60;97.60;;;;;;5037240;28;20374;-68
2022/01/10 02:20:50;;;;;;;;;;;11.70;97.60;;;;;;5047789;28;19921;-69
2022/01/10 02:23:16;;;;;;;;;;;11.30;97.50;;;;;;5034443;28;20383;-69
2022/01/10 02:25:42;;;;;;;;;;;11.60;97.50;;;;;;5041666;28;20008;-67
2022/01/10 02:28:07;;;;;;;;;;;11.40;97.50;;;;;;5034334;28;20378;-68
2022/01/10 02:30:33;;;;;;;;;;;11.60;97.50;;;;;;5047330;28;19920;-67
2022/01/10 02:33:00;;;;;;;;;;;;;;;;;;5054046;28;19928;-67
2022/01/10 02:35:33;;;;;;;;;;;11.30;97.50;;;;;;5052661;28;20299;-67
2022/01/10 02:37:58;;;;;;;;;;;11.40;97.50;;;;;;5046820;28;20011;-68
2022/01/10 02:40:25;;;;;;;;;;;11.70;97.50;;;;;;5035499;28;20331;-67
2022/01/10 02:42:51;;;;;;;;;;;11.20;97.40;;;;;;5058724;28;19920;-68
2022/01/10 02:45:17;;;;;;;;;;;11.30;97.50;;;;;;5061537;28;20388;-68
2022/01/10 02:47:42;;;;;;;;;;;11.30;97.50;;;;;;5053524;28;20290;-67
2022/01/10 02:50:08;;;;;;;;;;;11.70;97.40;;;;;;5053444;28;19928;-68
2022/01/10 02:52:34;;;;;;;;;;;11.30;97.30;;;;;;5035850;28;19967;-68
2022/01/10 02:55:01;;;;;;;;;;;11.40;97.30;;;;;;5046007;28;19921;-68
2022/01/10 02:57:29;;;;;;;;;;;11.20;97.30;;;;;;5053463;28;19924;-67
2022/01/10 02:59:55;;;;;;;;;;;11.30;97.30;;;;;;5040932;28;19972;-68
2022/01/10 03:02:25;;;;;;;;;;;11.10;97.20;;;;;;5032734;28;19928;-69
2022/01/10 03:04:50;;;;;;;;;;;11.10;97.20;;;;;;5033779;28;19921;-68
2022/01/10 03:07:16;;;;;;;;;;;11.10;97.20;;;;;;5047284;28;20029;-61
2022/01/10 03:09:42;;;;;;;;;;;11.30;97.20;;;;;;5011875;28;19968;-68
2022/01/10 03:12:09;;;;;;;;;;;11.40;97.20;;;;;;5050282;28;19920;-67
2022/01/10 03:14:38;;;;;;;;;;;11.40;97.20;;;;;;5052394;28;19967;-70
2022/01/10 03:17:04;;;;;;;;;;;;;;;;;;5057480;28;20313;-71
2022/01/10 03:19:29;;;;;;;;;;;11.40;97.30;;;;;;5034170;28;19928;-69
2022/01/10 03:21:55;;;;;;;;;;;11.20;97.20;;;;;;5034637;28;19928;-70
2022/01/10 03:24:21;;;;;;;;;;;11.20;97.10;;;;;;5033669;28;19920;-69
2022/01/10 03:26:46;;;;;;;;;;;11.20;97.20;;;;;;5051756;28;19971;-71
2022/01/10 03:29:12;;;;;;;;;;;11.30;97.20;;;;;;5043631;28;20019;-70
2022/01/10 03:31:37;;;;;;;;;;;11.20;97.20;;;;;;5014570;28;19928;-72
2022/01/10 03:34:03;;;;;;;;;;;11.20;97.20;;;;;;4998477;28;19929;-68
2022/01/10 03:36:29;;;;;;;;;;;11.00;97.20;;;;;;5037838;28;20266;-70
2022/01/10 03:38:54;;;;;;;;;;;11.10;97.20;;;;;;5052653;28;20369;-68
2022/01/10 03:41:20;;;;;;;;;;;11.40;97.20;;;;;;5024362;28;19921;-70
2022/01/10 03:43:45;;;;;;;;;;;11.10;97.10;;;;;;5014700;28;19925;-68
2022/01/10 03:46:11;;;;;;;;;;;11.30;97.10;;;;;;5005787;28;19916;-71
2022/01/10 03:48:37;;;;;;;;;;;11.10;97.10;;;;;;5017422;28;19928;-71
2022/01/10 03:51:02;;;;;;;;;;;11.20;97.10;;;;;;5034229;28;19916;-71
2022/01/10 03:53:28;;;;;;;;;;;11.10;97.10;;;;;;5034540;28;19920;-73
2022/01/10 03:55:54;;;;;;;;;;;11.00;97.00;;;;;;5029842;28;19932;-70
2022/01/10 03:58:20;;;;;;;;;;;11.00;97.10;;;;;;5052035;28;20413;-71
2022/01/10 04:00:45;;;;;;;;;;;11.30;97.20;;;;;;5051712;28;19921;-72
2022/01/10 04:03:11;;;;;;;;;;;11.30;97.20;;;;;;5042528;28;19917;-72
2022/01/10 04:05:37;;;;;;;;;;;11.40;97.10;;;;;;5032412;28;20331;-71
2022/01/10 04:08:02;;;;;;;;;;;11.30;97.10;;;;;;5032471;28;20007;-69
2022/01/10 04:10:28;;;;;;;;;;;11.40;97.10;;;;;;5033470;28;19964;-69
2022/01/10 04:12:54;;;;;;;;;;;11.40;97.20;;;;;;5051880;28;19967;-69
2022/01/10 04:15:19;;;;;;;;;;;;;;;;;;5054621;28;19921;-70
2022/01/10 04:17:45;;;;;;;;;;;11.20;97.00;;;;;;5005557;28;1150429;-70
2022/01/10 04:20:11;;;;;;;;;;;;;;;;;;5037417;28;20020;-68
2022/01/10 04:22:37;;;;;;;;;;;11.20;97.00;;;;;;5035184;28;19917;-68
2022/01/10 04:25:04;;;;;;;;;;;10.90;97.00;;;;;;5036754;28;19927;-68
2022/01/10 04:27:32;;;;;;;;;;;11.20;97.10;;;;;;5054260;28;19974;-70
2022/01/10 04:30:00;;;;;;;;;;;11.10;97.20;;;;;;5056572;28;19968;-69
2022/01/10 04:32:29;;;;;;;;;;;11.00;97.20;;;;;;5055493;28;20448;-70
2022/01/10 04:34:54;;;;;;;;;;;11.40;97.30;;;;;;5056405;28;19927;-67
2022/01/10 04:37:20;;;;;;;;;;;11.20;97.20;;;;;;5054988;28;19920;-70
2022/01/10 04:39:46;;;;;;;;;;;11.40;97.20;;;;;;5056354;28;20354;-68
2022/01/10 04:42:11;;;;;;;;;;;11.40;97.10;;;;;;5041189;28;19928;-70
2022/01/10 04:44:37;;;;;;;;;;;11.00;97.00;;;;;;5036072;28;19921;-67
2022/01/10 04:47:03;;;;;;;;;;;11.20;96.90;;;;;;5039092;28;19959;-70
2022/01/10 04:49:35;;;;;;;;;;;11.10;96.90;;;;;;5056177;28;19920;-68
2022/01/10 04:52:01;;;;;;;;;;;11.20;96.90;;;;;;5055514;28;19962;-70
2022/01/10 04:54:26;;;;;;;;;;;11.30;96.90;;;;;;5055332;28;20434;-70
2022/01/10 04:56:52;;;;;;;;;;;11.10;96.80;;;;;;5055041;28;20278;-70
2022/01/10 04:59:18;;;;;;;;;;;11.20;96.90;;;;;;5055960;28;20282;-70
2022/01/10 05:01:43;;;;;;;;;;;11.20;96.80;;;;;;5055589;28;20317;-70
2022/01/10 05:04:10;;;;;;;;;;;11.10;96.80;;;;;;5055200;28;19921;-70
2022/01/10 05:06:36;;;;;;;;;;;11.20;96.80;;;;;;5055846;28;20069;-69
2022/01/10 05:09:02;;;;;;;;;;;11.20;96.70;;;;;;5054181;28;20337;-69
2022/01/10 05:11:28;;;;;;;;;;;;;;;;;;5044394;28;19990;-69
2022/01/10 05:13:54;;;;;;;;;;;10.90;96.60;;;;;;5054570;28;20362;-69
2022/01/10 05:16:19;;;;;;;;;;;11.00;96.70;;;;;;5055398;28;19927;-69
2022/01/10 05:18:46;;;;;;;;;;;11.00;96.60;;;;;;5053574;28;19921;-69
2022/01/10 05:21:13;;;;;;;;;;;10.90;96.60;;;;;;5053868;28;20345;-70
2022/01/10 05:23:39;;;;;;;;;;;;;;;;;;5039682;28;19917;-67
2022/01/10 05:26:06;;;;;;;;;;;10.90;96.60;;;;;;5016685;28;20432;-70
2022/01/10 05:28:31;;;;;;;;;;;10.70;96.50;;;;;;5048395;28;19995;-72
2022/01/10 05:31:00;;;;;;;;;;;;;;;;;;5054501;28;19970;-71
2022/01/10 05:33:26;;;;;;;;;;;11.10;96.70;;;;;;5039133;28;20294;-70
2022/01/10 05:35:52;;;;;;;;;;;11.00;96.60;;;;;;5024378;28;19928;-72
2022/01/10 05:38:18;;;;;;;;;;;10.90;96.60;;;;;;5050453;28;19921;-73
2022/01/10 05:40:43;;;;;;;;;;;10.90;96.60;;;;;;5055143;28;19920;-72
2022/01/10 05:43:09;;;;;;;;;;;10.80;96.60;;;;;;5042250;28;20007;-73
2022/01/10 05:45:35;;;;;;;;;;;10.80;96.60;;;;;;5040303;28;20400;-72
2022/01/10 05:48:07;;;;;;;;;;;10.80;96.50;;;;;;5054803;28;19921;-72
2022/01/10 05:50:35;;;;;;;;;;;11.10;96.60;;;;;;5047643;28;19920;-73
2022/01/10 05:53:00;;;;;;;;;;;11.00;96.60;;;;;;5036643;28;19921;-73
2022/01/10 05:55:26;;;;;;;;;;;10.90;96.60;;;;;;5054876;28;19986;-72
2022/01/10 05:57:52;;;;;;;;;;;11.10;96.60;;;;;;5049567;28;19944;-73
2022/01/10 06:00:18;;;;;;;;;;;11.00;96.60;;;;;;5041979;28;19917;-73
2022/01/10 06:02:43;;;;;;;;;;;11.00;96.60;;;;;;5040750;28;19925;-73
2022/01/10 06:05:09;;;;;;;;;;;11.00;96.50;;;;;;5034767;28;20389;-73
2022/01/10 06:07:36;;;;;;;;;;;11.00;96.50;;;;;;5045222;28;19920;-73
2022/01/10 06:10:03;;;;;;;;;;;11.00;96.50;;;;;;5036854;28;19966;-73
2022/01/10 06:12:29;;;;;;;;;;;10.80;96.40;;;;;;5036566;28;20000;-73
2022/01/10 06:14:55;;;;;;;;;;;10.90;96.50;;;;;;5054216;28;20015;-72
2022/01/10 06:17:20;;;;;;;;;;;10.90;96.40;;;;;;5053538;28;20033;-73
2022/01/10 06:19:46;;;;;;;;;;;10.70;96.40;;;;;;5049384;28;20378;-72
2022/01/10 06:22:12;;;;;;;;;;;10.90;96.40;;;;;;5054436;28;19925;-73
2022/01/10 06:24:38;;;;;;;;;;;11.10;96.40;;;;;;5054347;28;20255;-72
2022/01/10 06:27:03;;;;;;;;;;;10.70;96.30;;;;;;5043781;28;19943;-69
2022/01/10 06:29:29;;;;;;;;;;;11.00;96.40;;;;;;5041923;28;19921;-70
2022/01/10 06:31:55;;;;;;;;;;;11.30;96.50;;;;;;5032732;28;20015;-72
2022/01/10 06:34:20;;;;;;;;;;;11.00;96.40;;;;;;5016921;28;19927;-73
2022/01/10 06:36:46;;;;;;;;;;;11.20;96.50;;;;;;5015545;28;19952;-72
2022/01/10 06:39:12;;;;;;;;;;;11.00;96.40;;;;;;5029410;28;19928;-73
2022/01/10 06:41:38;;;;;;;;;;;;;;;;;;5016986;28;20386;-72
2022/01/10 06:44:03;;;;;;;;;;;10.90;96.20;;;;;;5016898;28;20488;-71
2022/01/10 06:46:29;;;;;;;;;;;11.00;96.30;;;;;;5036000;28;19920;-72
2022/01/10 06:48:54;;;;;;;;;;;10.70;96.20;;;;;;5022583;28;19932;-72
2022/01/10 06:51:20;;;;;;;;;;;11.10;96.20;;;;;;5050158;28;19921;-71
2022/01/10 06:53:46;;;;;;;;;;;10.90;96.20;;;;;;5035742;28;19991;-71
2022/01/10 06:56:11;;;;;;;;;;;11.00;96.20;;;;;;5053918;28;20374;-71
2022/01/10 06:58:37;;;;;;;;;;;10.90;96.10;;;;;;5013186;28;19921;-71
2022/01/10 07:01:03;;;;;;;;;;;11.00;96.10;;;;;;5035433;28;19921;-71
2022/01/10 07:03:28;;;;;;;;;;;11.00;96.20;;;;;;5035779;28;20007;-71
2022/01/10 07:05:54;;;;;;;;;;;11.10;96.20;;;;;;5035580;28;19920;-71
2022/01/10 07:08:22;;;;;;;;;;;11.00;96.10;;;;;;5031757;28;20296;-71
2022/01/10 07:10:48;;;;;;;;;;;;;;;;;;5013679;28;19982;-67
2022/01/10 07:13:13;;;;;;;;;;;11.30;96.20;;;;;;5039042;28;19920;-68
2022/01/10 07:15:39;;;;;;;;;;;10.90;96.20;;;;;;5006277;28;20283;-69
2022/01/10 07:18:05;;;;;;;;;;;11.00;96.20;;;;;;5038812;28;19921;-68
2022/01/10 07:20:32;;;;;;;;;;;11.00;96.10;;;;;;5052964;28;19920;-69
2022/01/10 07:22:57;;;;;;;;;;;10.90;96.10;;;;;;5053411;28;20378;-69
2022/01/10 07:25:23;;;;;;;;;;;10.90;96.10;;;;;;5035409;28;19920;-69
2022/01/10 07:27:49;;;;;;;;;;;;;;;;;;5042498;28;19925;-69
2022/01/10 07:30:15;;;;;;;;;;;10.80;96.00;;;;;;5044920;28;19921;-72
2022/01/10 07:32:40;;;;;;;;;;;11.20;95.80;;;;;;5034825;28;20323;-68
2022/01/10 07:35:06;;;;;;;;;;;11.20;96.00;;;;;;5052529;28;19983;-71
2022/01/10 07:37:34;;;;;;;;;;;11.20;96.00;;;;;;5053178;28;19944;-72
2022/01/10 07:40:00;;;;;;;;;;;11.10;96.00;;;;;;5049370;28;19984;-72
2022/01/10 07:42:26;;;;;;;;;;;11.20;96.00;;;;;;5033258;28;19932;-72
2022/01/10 07:44:52;;;;;;;;;;;;;;;;;;5032110;28;19921;-67
2022/01/10 07:47:18;;;;;;;;;;;11.00;95.90;;;;;;5053401;28;19920;-72
2022/01/10 07:49:43;;;;;;;;;;;11.00;95.90;;;;;;5035974;28;20008;-72
2022/01/10 07:52:09;;;;;;;;;;;10.80;95.80;;;;;;5020625;28;20007;-72
2022/01/10 07:54:35;;;;;;;;;;;11.00;95.80;;;;;;5037159;28;20391;-72
2022/01/10 07:57:00;;;;;;;;;;;11.00;95.90;;;;;;5036780;28;19921;-72
2022/01/10 07:59:26;;;;;;;;;;;11.00;95.70;;;;;;5048026;28;19924;-71
2022/01/10 08:01:52;;;;;;;;;;;11.10;95.80;;;;;;5055087;28;20536;-71
2022/01/10 08:04:17;;;;;;;;;;;11.20;95.80;;;;;;5056703;28;20011;-72
2022/01/10 08:06:43;;;;;;;;;;;11.00;95.80;;;;;;5056866;28;19967;-72
2022/01/10 08:09:09;;;;;;;;;;;11.00;95.80;;;;;;5056044;28;20370;-66
2022/01/10 08:11:35;;;;;;;;;;;11.20;95.80;;;;;;5050474;28;19921;-71
2022/01/10 08:14:02;;;;;;;;;;;11.00;95.70;;;;;;5050235;28;19928;-69
2022/01/10 08:16:27;;;;;;;;;;;11.00;95.70;;;;;;5062072;28;20445;-70
2022/01/10 08:18:53;;;;;;;;;;;;;;;;;;5059445;28;19975;-63
2022/01/10 08:21:19;;;;;;;;;;;11.10;95.60;;;;;;5062893;28;19993;-66
2022/01/10 08:23:45;;;;;;;;;;;;;;;;;;5049363;28;20390;-65
2022/01/10 08:26:11;;;;;;;;;;;11.00;95.60;;;;;;5062980;28;19920;-69
2022/01/10 08:28:37;;;;;;;;;;;;;;;;;;5073383;28;20075;-66
2022/01/10 08:31:03;;;;;;;;;;;11.00;95.60;;;;;;5058342;28;19927;-69
2022/01/10 08:33:28;;;;;;;;;;;11.00;95.60;;;;;;5046874;28;20010;-68
2022/01/10 08:35:54;;;;;;;;;;;11.10;95.70;;;;;;5044639;28;19921;-69
2022/01/10 08:38:20;;;;;;;;;;;11.00;95.70;;;;;;5018707;28;19925;-70
2022/01/10 08:40:46;;;;;;;;;;;;;;;;;;5020358;28;19925;-71
2022/01/10 08:43:12;;;;;;;;;;;;;;;;;;5061832;28;19921;-68
2022/01/10 08:45:38;;;;;;;;;;;11.20;95.70;;;;;;5064414;28;19927;-69
2022/01/10 08:48:04;;;;;;;;;;;11.40;95.70;;;;;;5043112;28;19925;-65
2022/01/10 08:50:30;;;;;;;;;;;10.90;95.50;;;;;;5049736;28;19921;-69
2022/01/10 08:52:56;;;;;;;;;;;;;;;;;;5054785;28;19932;-69
2022/01/10 08:55:22;;;;;;;;;;;;;;;;;;5036920;28;19921;-65
2022/01/10 08:57:48;;;;;;;;;;;11.10;95.70;;;;;;5054762;28;19928;-70
2022/01/10 09:00:14;;;;;;;;;;;11.10;95.80;;;;;;5055389;28;19925;-71
2022/01/10 09:02:39;;;;;;;;;;;11.40;95.80;;;;;;5055700;28;19921;-73
2022/01/10 09:05:05;;;;;;;;;;;11.30;95.70;;;;;;5051723;28;20297;-70
2022/01/10 09:07:31;;;;;;;;;;;11.10;95.70;;;;;;5041050;28;20015;-71
2022/01/10 09:09:57;;;;;;;;;;;;;;;;;;5040766;28;20377;-72
2022/01/10 09:12:22;;;;;;;;;;;11.20;95.30;;;;;;5051356;28;19920;-62
2022/01/10 09:14:48;;;;;;;;;;;11.30;95.40;;;;;;5052717;28;19975;-72
2022/01/10 09:17:14;;;;;;;;;;;11.20;95.10;;;;;;5055586;28;19928;-73
2022/01/10 09:19:39;;;;;;;;;;;11.20;95.40;;;;;;5055030;28;20316;-73
2022/01/10 09:22:05;;;;;;;;;;;11.00;95.30;;;;;;5055555;28;19979;-72
2022/01/10 09:24:31;;;;;;;;;;;11.40;95.40;;;;;;5055026;28;19917;-72
2022/01/10 09:26:56;;;;;;;;;;;11.10;95.40;;;;;;5035405;28;19920;-71
2022/01/10 09:29:23;;;;;;;;;;;11.40;95.50;;;;;;5046745;28;19917;-72
2022/01/10 09:31:48;;;;;;;;;;;11.00;95.30;;;;;;5054812;28;20432;-71
2022/01/10 09:34:14;;;;;;;;;;;;;;;;;;5060110;28;20014;-69
2022/01/10 09:36:40;;;;;;;;;;;;;;;;;;5060337;28;19920;-68
2022/01/10 09:39:06;;;;;;;;;;;11.20;95.30;;;;;;5063543;28;19931;-72
2022/01/10 09:41:32;;;;;;;;;;;11.20;95.30;;;;;;5071871;28;19920;-72
2022/01/10 09:44:02;;;;;;;;;;;11.30;95.30;;;;;;5058897;28;19928;-70
2022/01/10 09:46:28;;;;;;;;;;;11.40;95.30;;;;;;5048403;28;20280;-70
2022/01/10 09:48:54;;;;;;;;;;;11.30;95.30;;;;;;5036086;28;20020;-72
2022/01/10 09:51:22;;;;;;;;;;;11.40;95.30;;;;;;5035029;28;19943;-72
2022/01/10 09:53:48;;;;;;;;;;;11.40;95.30;;;;;;5034906;28;19921;-72
2022/01/10 09:56:13;;;;;;;;;;;11.40;95.30;;;;;;5034568;28;19928;-72
2022/01/10 09:58:39;;;;;;;;;;;11.40;95.30;;;;;;5032785;28;19924;-72
2022/01/10 10:01:05;;;;;;;;;;;11.50;95.30;;;;;;5069482;28;20281;-69
2022/01/10 10:03:31;;;;;;;;;;;11.40;95.30;;;;;;5074338;28;19966;-70
2022/01/10 10:05:57;;;;;;;;;;;11.20;95.30;;;;;;5074130;28;19916;-73
2022/01/10 10:08:24;;;;;;;;;;;11.40;95.30;;;;;;5069255;28;19928;-69
2022/01/10 10:10:50;;;;;;;;;;;11.50;95.30;;;;;;5034238;28;19921;-68
2022/01/10 10:13:17;;;;;;;;;;;11.50;95.30;;;;;;5033743;28;19972;-71
2022/01/10 10:15:44;;;;;;;;;;;11.40;95.30;;;;;;5034361;28;19921;-73
2022/01/10 10:18:13;;;;;;;;;;;11.60;95.30;;;;;;5034776;28;20294;-72
2022/01/10 10:20:40;;;;;;;;;;;;;;;;;;5050063;28;19920;-61
2022/01/10 10:23:05;;;;;;;;;;;11.20;95.10;;;;;;5053637;28;19928;-61
2022/01/10 10:25:33;;;;;;;;;;;11.30;95.20;;;;;;5054173;28;20362;-62
2022/01/10 10:27:58;;;;;;;;;;;11.30;95.20;;;;;;5054235;28;19927;-72
2022/01/10 10:30:27;;;;;;;;;;;11.50;95.20;;;;;;5038508;28;19917;-73
2022/01/10 10:33:13;;;;;;;;;;;11.70;95.30;;;;;;5033831;28;20012;-72
2022/01/10 10:35:39;;;;;;;;;;;;;;;;;;5033650;28;19921;-71
2022/01/10 10:38:05;;;;;;;;;;;11.80;95.30;;;;;;5016578;28;19942;-66
2022/01/10 10:40:31;;;;;;;;;;;11.70;95.20;;;;;;5035910;28;20442;-70
2022/01/10 10:43:04;;;;;;;;;;;11.60;95.20;;;;;;5035958;28;20023;-78
2022/01/10 10:45:30;;;;;;;;;;;11.70;95.20;;;;;;5053636;28;19927;-78
2022/01/10 10:47:55;;;;;;;;;;;11.80;95.20;;;;;;5060846;28;19924;-69
2022/01/10 10:50:23;;;;;;;;;;;11.80;95.10;;;;;;5049986;28;19920;-75
2022/01/10 10:52:49;;;;;;;;;;;;;;;;;;5034833;28;19924;-63
2022/01/10 10:55:15;;;;;;;;;;;11.90;95.10;;;;;;5033897;28;19921;-62
2022/01/10 10:57:41;;;;;;;;;;;11.80;95.00;;;;;;5033972;28;20359;-65
2022/01/10 11:00:08;;;;;;;;;;;12.10;95.00;;;;;;5033534;28;19921;-62
2022/01/10 11:02:33;;;;;;;;;;;11.90;94.90;;;;;;5042159;28;19921;-66
2022/01/10 11:05:03;;;;;;;;;;;;;;;;;;5053658;28;20278;-62
2022/01/10 11:07:32;;;;;;;;;;;11.90;94.90;;;;;;5034887;28;19921;-67
2022/01/10 11:09:57;;;;;;;;;;;12.30;94.70;;;;;;5032893;28;20381;-63
2022/01/10 11:12:23;;;;;;;;;;;12.40;95.10;;;;;;5059858;28;19921;-64
2022/01/10 11:14:50;;;;;;;;;;;12.10;95.10;;;;;;5053582;28;19928;-63
2022/01/10 11:17:17;;;;;;;;;;;12.30;95.20;;;;;;5035674;28;20006;-68
2022/01/10 11:19:42;;;;;;;;;;;12.10;95.20;;;;;;5053168;28;19920;-72
2022/01/10 11:22:08;;;;;;;;;;;12.20;95.20;;;;;;5035908;28;19943;-72
2022/01/10 11:24:43;;;;;;;;;;;12.30;95.20;;;;;;5049227;28;20286;-70
2022/01/10 11:27:28;;;;;;;;;;;12.20;95.20;;;;;;5037444;28;19928;-69
2022/01/10 11:29:56;;;;;;;;;;;12.40;95.30;;;;;;5037639;28;19921;-70
2022/01/10 11:32:40;;;;;;;;;;;12.30;95.20;;;;;;5036664;28;19964;-70
2022/01/10 11:35:06;;;;;;;;;;;12.30;95.30;;;;;;5020645;28;19925;-70
2022/01/10 11:37:32;;;;;;;;;;;12.20;95.30;;;;;;5019823;28;19921;-70
2022/01/10 11:39:58;;;;;;;;;;;12.30;95.30;;;;;;5037455;28;19921;-70
2022/01/10 11:42:23;;;;;;;;;;;12.80;95.50;;;;;;5037638;28;19921;-70
2022/01/10 11:45:08;;;;;;;;;;;12.50;95.40;;;;;;5040677;28;20004;-69
2022/01/10 11:47:52;;;;;;;;;;;12.60;95.30;;;;;;5050143;28;19921;-70
2022/01/10 11:50:27;;;;;;;;;;;12.90;95.50;;;;;;5060669;28;19979;-70
2022/01/10 11:52:54;;;;;;;;;;;12.80;95.50;;;;;;5020159;28;19975;-70
2022/01/10 11:55:19;;;;;;;;;;;13.30;95.60;;;;;;5052077;28;20011;-70
2022/01/10 11:57:45;;;;;;;;;;;13.10;95.60;;;;;;5039398;28;19979;-71
2022/01/10 12:00:13;;;;;;;;;;;13.10;95.60;;;;;;5021584;28;20565;-71
2022/01/10 12:02:38;;;;;;;;;;;13.10;95.60;;;;;;5042748;28;19928;-70
2022/01/10 12:05:05;;;;;;;;;;;13.10;95.60;;;;;;5056866;28;20015;-71
2022/01/10 12:07:31;;;;;;;;;;;13.40;95.70;;;;;;5056374;28;19920;-71
2022/01/10 12:09:58;;;;;;;;;;;13.30;95.60;;;;;;5056102;28;20016;-70
2022/01/10 12:12:30;;;;;;;;;;;13.50;95.70;;;;;;5052453;28;20330;-70
2022/01/10 12:14:56;;;;;;;;;;;13.60;95.70;;;;;;5052205;28;20374;-70
2022/01/10 12:17:22;;;;;;;;;;;13.30;95.70;;;;;;5028221;28;19960;-71
2022/01/10 12:19:48;;;;;;;;;;;13.20;95.60;;;;;;5056627;28;19964;-67
2022/01/10 12:22:14;;;;;;;;;;;13.60;95.50;;;;;;5056042;28;19921;-69
2022/01/10 12:24:40;;;;;;;;;;;13.40;95.70;;;;;;5056560;28;20377;-67
2022/01/10 12:27:06;;;;;;;;;;;13.60;95.80;;;;;;5054803;28;19925;-68
2022/01/10 12:29:32;;;;;;;;;;;13.20;95.70;;;;;;5049904;28;19927;-71
2022/01/10 12:31:58;;;;;;;;;;;;;;;;;;5052236;28;20015;-71
2022/01/10 12:34:24;;;;;;;;;;;;;;;;;;5034083;28;19972;-69
2022/01/10 12:36:50;;;;;;;;;;;13.40;95.70;;;;;;5018501;28;19961;-72
2022/01/10 12:39:21;;;;;;;;;;;13.40;95.80;;;;;;5018332;28;19967;-71
2022/01/10 12:41:46;;;;;;;;;;;13.50;95.80;;;;;;5020703;28;20015;-72
2022/01/10 12:44:12;;;;;;;;;;;13.30;95.80;;;;;;5018609;28;20447;-69
2022/01/10 12:46:37;;;;;;;;;;;13.50;95.90;;;;;;5036175;28;19917;-71
2022/01/10 12:49:04;;;;;;;;;;;13.30;95.80;;;;;;5023272;28;19975;-71
2022/01/10 12:51:34;;;;;;;;;;;13.10;95.80;;;;;;5018037;28;20389;-71
2022/01/10 12:54:00;;;;;;;;;;;13.30;95.80;;;;;;5055609;28;20281;-71
2022/01/10 12:56:26;;;;;;;;;;;13.50;95.90;;;;;;5035192;28;19931;-62
2022/01/10 12:58:51;;;;;;;;;;;13.40;95.90;;;;;;5061332;28;20382;-69
2022/01/10 13:01:17;;;;;;;;;;;13.30;95.80;;;;;;5062691;28;20027;-71
2022/01/10 13:03:47;;;;;;;;;;;13.30;95.90;;;;;;5075490;28;19921;-66
2022/01/10 13:06:13;;;;;;;;;;;13.20;95.90;;;;;;5071442;28;19921;-72
2022/01/10 13:08:40;;;;;;;;;;;13.00;96.00;;;;;;5018178;28;19928;-70
2022/01/10 13:11:14;;;;;;;;;;;13.20;96.00;;;;;;5009270;28;19921;-74
2022/01/10 13:13:46;;;;;;;;;;;13.50;96.10;;;;;;5041906;28;19999;-72
2022/01/10 13:16:25;;;;;;;;;;;13.30;95.90;;;;;;5030075;28;19921;-70
2022/01/10 13:18:59;;;;;;;;;;;13.20;95.90;;;;;;5055420;28;19927;-74
2022/01/10 13:21:28;;;;;;;;;;;13.00;95.80;;;;;;5066471;28;19925;-72
2022/01/10 13:24:14;;;;;;;;;;;13.10;95.90;;;;;;5047939;28;19932;-73
2022/01/10 13:26:53;;;;;;;;;;;13.00;95.80;;;;;;5034546;28;19943;-72
2022/01/10 13:29:30;;;;;;;;;;;13.00;95.80;;;;;;5035117;28;19921;-70
2022/01/10 13:31:56;;;;;;;;;;;13.00;95.80;;;;;;5027803;28;19964;-68
2022/01/10 13:34:25;;;;;;;;;;;13.10;95.90;;;;;;5039748;28;19964;-73
2022/01/10 13:36:52;;;;;;;;;;;12.80;95.80;;;;;;5055201;28;19925;-73
2022/01/10 13:39:22;;;;;;;;;;;12.90;95.90;;;;;;5037629;28;19916;-73
2022/01/10 13:42:01;;;;;;;;;;;12.90;95.90;;;;;;5041444;28;20397;-74
2022/01/10 13:44:26;;;;;;;;;;;12.80;95.90;;;;;;5035237;28;20274;-73
2022/01/10 13:47:01;;;;;;;;;;;12.60;95.80;;;;;;5034241;28;19921;-72
2022/01/10 13:49:27;;;;;;;;;;;13.00;95.90;;;;;;5035068;28;19916;-73
2022/01/10 13:52:08;;;;;;;;;;;13.00;95.90;;;;;;5035961;28;19921;-73
2022/01/10 13:54:34;;;;;;;;;;;13.10;96.00;;;;;;5034899;28;20306;-70
2022/01/10 13:57:21;;;;;;;;;;;12.80;96.00;;;;;;5034650;28;19928;-73
2022/01/10 13:59:46;;;;;;;;;;;12.60;95.90;;;;;;5034812;28;20279;-73
2022/01/10 14:02:15;;;;;;;;;;;12.50;95.90;;;;;;5035746;28;19921;-68
2022/01/10 14:04:41;;;;;;;;;;;12.60;95.90;;;;;;5034818;28;19932;-66
2022/01/10 14:07:07;;;;;;;;;;;12.80;96.00;;;;;;5043840;28;19921;-69
2022/01/10 14:09:33;;;;;;;;;;;12.90;96.00;;;;;;5040510;28;19928;-73
2022/01/10 14:11:59;;;;;;;;;;;;;;;;;;5035522;28;19921;-68
2022/01/10 14:14:28;;;;;;;;;;;13.10;96.10;;;;;;5048092;28;19929;-73
2022/01/10 14:16:55;;;;;;;;;;;12.60;96.00;;;;;;5034989;28;19932;-73
2022/01/10 14:19:21;;;;;;;;;;;12.50;96.00;;;;;;5042087;28;19921;-73
2022/01/10 14:21:47;;;;;;;;;;;12.70;96.10;;;;;;5032979;28;19921;-74
2022/01/10 14:24:13;;;;;;;;;;;12.50;96.00;;;;;;5016508;28;19924;-74
2022/01/10 14:26:39;;;;;;;;;;;12.60;96.10;;;;;;5016522;28;19975;-64
2022/01/10 14:29:05;;;;;;;;;;;12.90;96.20;;;;;;5034061;28;19920;-74
2022/01/10 14:31:31;;;;;;;;;;;12.50;96.10;;;;;;5016550;28;20445;-74
2022/01/10 14:33:57;;;;;;;;;;;12.80;96.10;;;;;;5009787;28;19986;-73